Time;durP1;ratioP1;P1;durP2;ratioP2;P2;SDS_P1;SDS_P2;PMS_P1;PMS_P2;Temp;Humidity;BMP_temperature;BMP_pressure;BME280_temperature;BME280_humidity;BME280_pressure;Samples;Min_cycle;Max_cycle;Signal;HPM_P1;HPM_P2
2023/09/16 00:00:18;;;;;;;4.90;3.65;;;22.20;61.10;;;;;;5091458;28;20190;-57
2023/09/16 00:02:45;;;;;;;4.05;3.58;;;22.20;61.10;;;;;;5091967;28;20214;-58
2023/09/16 00:05:14;;;;;;;3.10;2.80;;;22.20;61.10;;;;;;5092418;28;20185;-54
2023/09/16 00:07:41;;;;;;;4.38;3.00;;;22.20;61.10;;;;;;5092318;28;20304;-57
2023/09/16 00:10:09;;;;;;;4.40;3.00;;;22.20;61.20;;;;;;5092246;28;20182;-56
2023/09/16 00:12:36;;;;;;;4.45;3.38;;;22.10;61.00;;;;;;5092211;28;20252;-58
2023/09/16 00:15:04;;;;;;;4.20;3.38;;;22.10;61.00;;;;;;5092255;28;20197;-56
2023/09/16 00:17:31;;;;;;;3.03;2.70;;;22.10;61.00;;;;;;5092183;28;20214;-55
2023/09/16 00:19:59;;;;;;;4.35;3.40;;;22.20;61.20;;;;;;5092359;28;20239;-57
2023/09/16 00:22:57;;;;;;;3.65;3.08;;;22.10;61.10;;;;;;5091811;28;20225;-57
2023/09/16 00:25:26;;;;;;;3.42;3.00;;;22.20;61.20;;;;;;5084276;28;20321;-59
2023/09/16 00:27:54;;;;;;;3.97;3.10;;;22.20;61.30;;;;;;5092266;28;20218;-57
2023/09/16 00:30:22;;;;;;;6.43;3.22;;;22.10;61.10;;;;;;5091677;28;20740;-59
2023/09/16 00:32:49;;;;;;;7.05;3.30;;;22.10;61.10;;;;;;5091857;28;20240;-55
2023/09/16 00:35:16;;;;;;;3.80;3.20;;;22.10;61.10;;;;;;5092191;28;20190;-56
2023/09/16 00:37:44;;;;;;;3.63;2.90;;;22.10;61.20;;;;;;5091590;28;20742;-57
2023/09/16 00:40:25;;;;;;;;;;;;;;;;;;;;;
2023/09/16 00:42:53;;;;;;;5.03;3.10;;;22.10;61.30;;;;;;5043450;28;20287;-56
2023/09/16 00:45:20;;;;;;;3.90;3.20;;;22.20;61.40;;;;;;5092111;28;20197;-56
2023/09/16 00:47:47;;;;;;;4.38;3.10;;;22.20;61.40;;;;;;5091975;28;20214;-57
2023/09/16 00:50:17;;;;;;;4.35;3.03;;;22.10;61.30;;;;;;5091905;28;20190;-56
2023/09/16 00:52:46;;;;;;;4.93;3.08;;;22.20;61.40;;;;;;5091697;28;20283;-59
2023/09/16 00:55:15;;;;;;;3.72;3.10;;;22.10;61.40;;;;;;5092001;28;20190;-55
2023/09/16 00:57:47;;;;;;;3.53;3.05;;;22.10;61.40;;;;;;5091659;28;20320;-53
2023/09/16 01:00:16;;;;;;;3.50;3.00;;;22.10;61.40;;;;;;5091657;28;20197;-55
2023/09/16 01:02:44;;;;;;;3.75;2.88;;;22.10;61.40;;;;;;5091776;28;20222;-54
2023/09/16 01:05:14;;;;;;;3.45;2.88;;;22.10;61.50;;;;;;5091921;28;20193;-58
2023/09/16 01:07:42;;;;;;;4.45;2.90;;;22.10;61.40;;;;;;5091577;28;20217;-58
2023/09/16 01:10:11;;;;;;;3.17;2.60;;;22.20;61.60;;;;;;5091814;28;20277;-58
2023/09/16 01:12:52;;;;;;;;;;;;;;;;;;;;;
2023/09/16 01:15:22;;;;;;;3.75;2.53;;;22.10;61.50;;;;;;5094763;28;20672;-54
2023/09/16 01:17:58;;;;;;;4.75;3.30;;;22.10;61.50;;;;;;5095412;28;20629;-60
2023/09/16 01:20:28;;;;;;;5.93;3.35;;;22.20;61.70;;;;;;5095303;28;20182;-56
2023/09/16 01:22:55;;;;;;;3.80;2.80;;;22.10;62.40;;;;;;5095068;28;20218;-55
2023/09/16 01:25:26;;;;;;;5.28;3.17;;;22.10;61.60;;;;;;5100609;28;20233;-59
2023/09/16 01:27:53;;;;;;;5.20;2.97;;;22.10;61.60;;;;;;5115554;28;20209;-55
2023/09/16 01:30:21;;;;;;;3.75;2.97;;;22.10;61.70;;;;;;5115044;28;20284;-59
2023/09/16 01:32:54;;;;;;;3.58;3.10;;;22.10;61.70;;;;;;5115170;28;20247;-58
2023/09/16 01:35:24;;;;;;;3.92;2.72;;;22.10;61.70;;;;;;5115436;28;20196;-59
2023/09/16 01:37:53;;;;;;;4.32;3.08;;;22.10;61.70;;;;;;5114851;28;20310;-56
2023/09/16 01:40:24;;;;;;;4.90;3.03;;;22.10;61.70;;;;;;5115301;28;20221;-59
2023/09/16 01:42:52;;;;;;;3.72;3.05;;;22.10;61.80;;;;;;5115054;28;20213;-59
2023/09/16 01:45:19;;;;;;;5.18;3.00;;;22.10;62.60;;;;;;5115090;28;20189;-56
2023/09/16 01:47:48;;;;;;;4.72;2.95;;;22.10;61.80;;;;;;5115220;28;20209;-56
2023/09/16 01:50:16;;;;;;;4.07;2.85;;;22.10;61.80;;;;;;5114794;28;20207;-56
2023/09/16 01:52:43;;;;;;;4.22;3.10;;;22.10;61.90;;;;;;5114658;28;20233;-57
2023/09/16 01:55:10;;;;;;;4.55;3.22;;;22.20;62.00;;;;;;5114757;28;20197;-54
2023/09/16 01:57:39;;;;;;;4.63;3.55;;;22.20;62.10;;;;;;5114914;28;20213;-59
2023/09/16 02:00:07;;;;;;;3.67;2.80;;;22.10;62.00;;;;;;5114755;28;20186;-59
2023/09/16 02:02:35;;;;;;;4.32;3.00;;;22.10;61.90;;;;;;5113196;28;20218;-57
2023/09/16 02:05:02;;;;;;;3.53;2.90;;;22.10;62.00;;;;;;5114096;28;20193;-60
2023/09/16 02:07:29;;;;;;;3.65;3.03;;;22.10;62.00;;;;;;5114307;28;20642;-53
2023/09/16 02:09:57;;;;;;;3.58;2.95;;;22.10;62.10;;;;;;5114757;28;20196;-58
2023/09/16 02:12:24;;;;;;;3.70;3.10;;;22.10;62.10;;;;;;5114647;28;20239;-57
2023/09/16 02:14:53;;;;;;;4.50;2.83;;;22.20;62.20;;;;;;5114045;28;20541;-58
2023/09/16 02:17:20;;;;;;;3.78;2.65;;;22.10;62.10;;;;;;5114525;28;20225;-57
2023/09/16 02:19:56;;;;;;;5.53;3.45;;;22.10;62.10;;;;;;5114194;28;20666;-55
2023/09/16 02:22:24;;;;;;;4.68;2.92;;;22.10;62.20;;;;;;5114117;28;20213;-57
2023/09/16 02:24:51;;;;;;;4.78;2.90;;;22.10;62.20;;;;;;5113621;28;20189;-57
2023/09/16 02:27:18;;;;;;;3.08;2.67;;;22.10;62.20;;;;;;5114402;28;20185;-55
2023/09/16 02:29:48;;;;;;;3.95;2.97;;;22.10;62.20;;;;;;5114194;28;20193;-58
2023/09/16 02:32:16;;;;;;;4.00;3.10;;;22.10;62.20;;;;;;5113743;28;20588;-57
2023/09/16 02:34:43;;;;;;;4.18;3.03;;;22.10;62.30;;;;;;5113847;28;20710;-57
2023/09/16 02:37:20;;;;;;;;;;;;;;;;;;;;;
2023/09/16 02:39:49;;;;;;;4.00;2.85;;;22.10;62.30;;;;;;5113943;28;20207;-58
2023/09/16 02:42:17;;;;;;;4.25;3.22;;;22.10;62.30;;;;;;5113991;28;20268;-58
2023/09/16 02:44:50;;;;;;;4.53;2.72;;;22.10;62.30;;;;;;5113867;28;20189;-57
2023/09/16 02:47:21;;;;;;;5.35;2.97;;;22.10;62.40;;;;;;5113581;28;20706;-57
2023/09/16 02:49:49;;;;;;;6.03;2.97;;;22.10;62.40;;;;;;5113969;28;20267;-57
2023/09/16 02:52:18;;;;;;;5.45;3.28;;;22.10;62.40;;;;;;5113565;28;20217;-58
2023/09/16 02:55:24;;;;;;;3.92;2.88;;;22.10;62.40;;;;;;5113828;28;20221;-59
2023/09/16 02:57:51;;;;;;;3.58;2.45;;;22.10;62.40;;;;;;5113356;28;20219;-58
2023/09/16 03:00:19;;;;;;;5.10;2.78;;;22.10;62.40;;;;;;5113500;28;20196;-59
2023/09/16 03:02:49;;;;;;;5.25;3.13;;;22.10;62.40;;;;;;5113687;28;20209;-56
2023/09/16 03:05:16;;;;;;;3.58;2.85;;;22.10;62.40;;;;;;5113405;28;20581;-54
2023/09/16 03:07:45;;;;;;;3.83;3.00;;;22.10;62.40;;;;;;5113419;28;20220;-58
2023/09/16 03:10:13;;;;;;;3.35;2.75;;;22.00;62.30;;;;;;5113530;28;20276;-59
2023/09/16 03:12:40;;;;;;;5.18;2.53;;;22.10;62.40;;;;;;5113486;28;20233;-57
2023/09/16 03:15:08;;;;;;;3.70;2.72;;;22.10;62.40;;;;;;5113179;28;20196;-55
2023/09/16 03:17:36;;;;;;;3.67;2.60;;;22.10;62.50;;;;;;5113289;28;20300;-55
2023/09/16 03:20:04;;;;;;;5.03;2.50;;;22.10;62.50;;;;;;5113364;28;20197;-58
2023/09/16 03:22:32;;;;;;;5.15;3.30;;;22.10;62.40;;;;;;5113130;28;20217;-57
2023/09/16 03:25:00;;;;;;;7.80;3.10;;;22.10;62.40;;;;;;5113025;28;20189;-57
2023/09/16 03:27:27;;;;;;;4.50;2.97;;;22.10;62.50;;;;;;5113384;28;20714;-58
2023/09/16 03:29:54;;;;;;;4.30;2.85;;;22.10;62.40;;;;;;5112855;28;20296;-59
2023/09/16 03:32:23;;;;;;;3.83;3.30;;;22.10;62.50;;;;;;5113067;28;20299;-59
2023/09/16 03:34:50;;;;;;;4.30;2.90;;;22.10;62.40;;;;;;5113249;28;20185;-52
2023/09/16 03:37:18;;;;;;;5.18;3.03;;;22.10;62.40;;;;;;5112747;28;20196;-55
2023/09/16 03:39:46;;;;;;;3.53;2.90;;;22.10;62.40;;;;;;5112852;28;20662;-59
2023/09/16 03:42:13;;;;;;;5.00;3.00;;;22.20;62.50;;;;;;5113042;28;20189;-54
2023/09/16 03:44:40;;;;;;;5.68;2.78;;;22.10;62.40;;;;;;5112876;28;20189;-58
2023/09/16 03:50:16;;;;;;;6.32;2.75;;;22.10;62.40;;;;;;5029874;28;20201;-58
2023/09/16 03:52:53;;;;;;;3.38;2.92;;;22.10;62.40;;;;;;5032218;28;20366;-59
2023/09/16 03:55:20;;;;;;;4.10;2.67;;;22.10;62.50;;;;;;5112947;28;20268;-56
2023/09/16 03:57:50;;;;;;;4.20;2.72;;;22.10;62.40;;;;;;5112565;28;20217;-59
2023/09/16 04:00:17;;;;;;;5.10;3.13;;;22.10;62.50;;;;;;5112878;28;20269;-58
2023/09/16 04:02:44;;;;;;;4.60;2.75;;;22.10;62.40;;;;;;5112726;28;20300;-57
2023/09/16 04:05:11;;;;;;;3.60;2.60;;;22.00;62.30;;;;;;5112906;28;20273;-57
2023/09/16 04:07:39;;;;;;;4.25;3.00;;;22.10;62.40;;;;;;5112681;28;20300;-57
2023/09/16 04:10:08;;;;;;;3.30;2.72;;;22.10;62.40;;;;;;5112526;28;20189;-55
2023/09/16 04:12:35;;;;;;;3.42;2.67;;;22.10;62.40;;;;;;5112079;28;20264;-59
2023/09/16 04:15:02;;;;;;;5.25;2.67;;;22.10;62.40;;;;;;5112718;28;20189;-58
2023/09/16 04:17:30;;;;;;;4.05;2.75;;;22.10;62.40;;;;;;5112638;28;20186;-56
2023/09/16 04:19:57;;;;;;;3.25;2.70;;;22.10;62.40;;;;;;5112442;28;20186;-59
2023/09/16 04:22:24;;;;;;;2.97;2.63;;;22.10;62.40;;;;;;5112194;28;20292;-58
2023/09/16 04:24:51;;;;;;;3.78;2.90;;;22.10;62.30;;;;;;5112126;28;20193;-56
2023/09/16 04:27:20;;;;;;;2.58;2.38;;;22.10;62.30;;;;;;5112174;28;20221;-59
2023/09/16 04:29:47;;;;;;;4.13;2.88;;;22.10;63.10;;;;;;5112396;28;20287;-57
2023/09/16 04:32:14;;;;;;;3.00;2.55;;;22.10;62.30;;;;;;5112332;28;20324;-58
2023/09/16 04:34:41;;;;;;;3.20;2.60;;;22.00;62.20;;;;;;5111976;28;20189;-58
2023/09/16 04:37:09;;;;;;;3.72;2.95;;;22.10;62.30;;;;;;5112423;28;20199;-57
2023/09/16 04:39:36;;;;;;;3.65;2.88;;;22.10;62.30;;;;;;5112658;28;20228;-58
2023/09/16 04:42:04;;;;;;;3.75;2.78;;;22.10;62.30;;;;;;5112267;28;20196;-59
2023/09/16 04:44:38;;;;;;;3.33;2.67;;;22.10;62.30;;;;;;5112658;28;20275;-55
2023/09/16 04:47:07;;;;;;;2.88;2.42;;;22.10;62.20;;;;;;5113992;28;20651;-56
2023/09/16 04:49:34;;;;;;;3.47;2.72;;;22.10;62.20;;;;;;5116066;28;20229;-56
2023/09/16 04:52:03;;;;;;;7.88;2.97;;;22.10;62.30;;;;;;5116206;28;20539;-55
2023/09/16 04:54:31;;;;;;;3.15;2.80;;;22.10;62.30;;;;;;5116449;28;20262;-56
2023/09/16 04:56:59;;;;;;;4.53;2.90;;;22.10;62.30;;;;;;5115964;28;20189;-59
2023/09/16 04:59:26;;;;;;;3.70;2.70;;;22.10;62.30;;;;;;5116280;28;20213;-57
2023/09/16 05:01:54;;;;;;;3.60;2.78;;;22.10;62.30;;;;;;5116186;28;20269;-58
2023/09/16 05:04:22;;;;;;;3.25;2.60;;;22.10;62.30;;;;;;5107851;28;20221;-56
2023/09/16 05:06:49;;;;;;;3.08;2.67;;;22.00;62.20;;;;;;5115591;28;20714;-57
2023/09/16 05:09:16;;;;;;;2.70;2.40;;;22.10;62.30;;;;;;5116041;28;20290;-56
2023/09/16 05:11:44;;;;;;;4.25;2.90;;;22.00;62.20;;;;;;5115699;28;20185;-56
2023/09/16 05:14:11;;;;;;;3.30;2.92;;;22.10;62.30;;;;;;5115656;28;20696;-57
2023/09/16 05:16:38;;;;;;;4.90;2.58;;;22.10;62.30;;;;;;5115824;28;20268;-57
2023/09/16 05:19:10;;;;;;;4.10;2.97;;;22.00;62.20;;;;;;5115388;28;20296;-59
2023/09/16 05:22:03;;;;;;;3.05;2.40;;;22.00;62.20;;;;;;5115435;28;20272;-58
2023/09/16 05:24:32;;;;;;;3.70;2.55;;;22.10;62.30;;;;;;5096275;28;20242;-57
2023/09/16 05:27:00;;;;;;;4.25;2.90;;;22.00;62.30;;;;;;5115053;28;20221;-55
2023/09/16 05:29:27;;;;;;;3.20;2.90;;;22.10;62.40;;;;;;5115668;28;20299;-57
2023/09/16 05:31:54;;;;;;;3.53;2.67;;;22.00;62.30;;;;;;5115287;28;20284;-57
2023/09/16 05:34:23;;;;;;;3.67;2.92;;;22.00;62.20;;;;;;5107063;28;20378;-57
2023/09/16 05:36:50;;;;;;;4.10;2.90;;;22.00;62.20;;;;;;5115361;28;20269;-55
2023/09/16 05:39:17;;;;;;;2.85;2.55;;;22.00;62.30;;;;;;5115558;28;20217;-58
2023/09/16 05:41:44;;;;;;;2.90;2.60;;;22.00;62.30;;;;;;5115151;28;20198;-59
2023/09/16 05:44:11;;;;;;;4.28;2.90;;;22.00;62.30;;;;;;5115215;28;20221;-60
2023/09/16 05:46:38;;;;;;;2.92;2.58;;;22.00;62.30;;;;;;5115272;28;20185;-59
2023/09/16 05:49:20;;;;;;;4.10;3.03;;;22.00;62.30;;;;;;5114912;28;20217;-58
2023/09/16 05:51:49;;;;;;;4.60;2.88;;;22.10;63.20;;;;;;5111801;28;20280;-57
2023/09/16 05:54:18;;;;;;;4.10;2.80;;;22.00;62.30;;;;;;5115207;28;20260;-57
2023/09/16 05:56:46;;;;;;;3.70;2.90;;;22.00;62.30;;;;;;5114737;28;20193;-58
2023/09/16 05:59:13;;;;;;;4.05;2.78;;;22.00;62.30;;;;;;5113634;28;20209;-56
2023/09/16 06:01:55;;;;;;;3.70;2.70;;;22.00;62.30;;;;;;5115257;28;20235;-56
2023/09/16 06:04:22;;;;;;;4.20;2.63;;;22.00;62.30;;;;;;5112454;28;20290;-56
2023/09/16 06:06:50;;;;;;;3.50;2.88;;;22.00;62.40;;;;;;5114817;28;20431;-58
2023/09/16 06:09:18;;;;;;;3.08;2.78;;;22.00;62.30;;;;;;5114942;28;20653;-57
2023/09/16 06:11:45;;;;;;;3.38;2.58;;;22.00;62.40;;;;;;5114588;28;20268;-58
2023/09/16 06:14:12;;;;;;;6.97;2.80;;;22.00;62.30;;;;;;5114507;28;20316;-58
2023/09/16 06:16:39;;;;;;;3.35;2.83;;;22.00;62.30;;;;;;5114608;28;20185;-57
2023/09/16 06:19:06;;;;;;;4.10;2.53;;;22.00;62.30;;;;;;5114529;28;20213;-58
2023/09/16 06:21:34;;;;;;;3.53;2.45;;;22.00;62.40;;;;;;5114559;28;20181;-56
2023/09/16 06:24:02;;;;;;;3.95;2.65;;;22.00;62.30;;;;;;5114312;28;20229;-56
2023/09/16 06:26:29;;;;;;;3.60;2.92;;;22.00;62.30;;;;;;5114112;28;20229;-57
2023/09/16 06:28:57;;;;;;;3.35;2.88;;;22.00;62.40;;;;;;5114485;28;20213;-56
2023/09/16 06:31:24;;;;;;;2.83;2.53;;;22.00;62.40;;;;;;5114461;28;20400;-57
2023/09/16 06:33:52;;;;;;;2.88;2.63;;;22.00;62.40;;;;;;5113868;28;20698;-58
2023/09/16 06:36:19;;;;;;;3.42;2.67;;;22.00;62.40;;;;;;5114187;28;20190;-56
2023/09/16 06:38:46;;;;;;;3.67;2.50;;;22.00;62.40;;;;;;5114322;28;20213;-57
2023/09/16 06:41:14;;;;;;;3.33;2.60;;;22.00;62.40;;;;;;5113688;28;20274;-58
2023/09/16 06:43:42;;;;;;;2.88;2.30;;;22.00;62.90;;;;;;5113882;28;20710;-58
2023/09/16 06:46:09;;;;;;;4.55;2.95;;;22.00;62.40;;;;;;5114065;28;20185;-57
2023/09/16 06:48:36;;;;;;;3.55;2.75;;;21.90;62.30;;;;;;5113693;28;20247;-58
2023/09/16 06:51:03;;;;;;;4.10;2.95;;;22.00;62.40;;;;;;5114049;28;20185;-58
2023/09/16 06:56:25;;;;;;;3.70;2.50;;;22.00;62.40;;;;;;5050666;28;20227;-56
2023/09/16 06:58:56;;;;;;;4.13;2.80;;;22.00;62.40;;;;;;5050703;28;20306;-58
2023/09/16 07:01:23;;;;;;;4.93;3.08;;;22.00;62.40;;;;;;5113799;28;20196;-57
2023/09/16 07:03:50;;;;;;;4.00;2.85;;;22.00;62.40;;;;;;5113273;28;20308;-57
2023/09/16 07:06:17;;;;;;;4.63;2.65;;;22.00;62.40;;;;;;5113682;28;20182;-57
2023/09/16 07:08:45;;;;;;;3.25;2.60;;;22.00;62.40;;;;;;5113619;28;20217;-58
2023/09/16 07:11:13;;;;;;;3.13;2.42;;;21.90;62.30;;;;;;5113253;28;20193;-56
2023/09/16 07:13:42;;;;;;;3.90;2.90;;;22.00;62.40;;;;;;5113548;28;20232;-58
2023/09/16 07:16:12;;;;;;;4.40;2.88;;;22.00;62.40;;;;;;5113144;28;20192;-57
2023/09/16 07:18:39;;;;;;;2.90;2.50;;;22.00;62.40;;;;;;5113321;28;20248;-55
2023/09/16 07:21:07;;;;;;;5.85;3.08;;;22.00;62.40;;;;;;5113445;28;20268;-57
2023/09/16 07:23:35;;;;;;;2.83;2.42;;;22.00;62.40;;;;;;5113412;28;20217;-57
2023/09/16 07:26:02;;;;;;;5.22;2.90;;;22.00;62.40;;;;;;5112679;28;20315;-56
2023/09/16 07:28:29;;;;;;;5.18;2.60;;;22.00;62.40;;;;;;5113140;28;20217;-57
2023/09/16 07:30:58;;;;;;;3.10;2.78;;;22.00;62.40;;;;;;5113268;28;20286;-57
2023/09/16 07:33:25;;;;;;;3.45;2.88;;;22.00;62.40;;;;;;5113081;28;20233;-56
2023/09/16 07:35:52;;;;;;;2.78;2.40;;;22.00;62.40;;;;;;5113097;28;20186;-57
2023/09/16 07:38:20;;;;;;;6.15;2.70;;;22.00;62.40;;;;;;5113188;28;20612;-56
2023/09/16 07:40:47;;;;;;;3.75;2.80;;;22.00;62.40;;;;;;5112594;28;20190;-56
2023/09/16 07:43:16;;;;;;;3.42;2.80;;;22.00;62.40;;;;;;5112868;28;20307;-56
2023/09/16 07:45:44;;;;;;;4.15;3.17;;;22.00;62.40;;;;;;5112973;28;20209;-57
2023/09/16 07:48:14;;;;;;;3.80;3.00;;;22.00;62.40;;;;;;5112742;28;20299;-56
2023/09/16 07:50:41;;;;;;;4.55;2.75;;;22.00;62.40;;;;;;5112644;28;20272;-58
2023/09/16 07:53:08;;;;;;;5.50;3.00;;;22.00;62.40;;;;;;5112477;28;20216;-56
2023/09/16 07:55:35;;;;;;;4.30;2.58;;;22.00;62.40;;;;;;5112725;28;20197;-57
2023/09/16 07:58:02;;;;;;;4.80;2.58;;;22.00;62.40;;;;;;5112795;28;20216;-57
2023/09/16 08:00:29;;;;;;;4.70;2.67;;;22.00;62.40;;;;;;5112834;28;20185;-58
2023/09/16 08:02:56;;;;;;;3.30;3.00;;;21.90;62.30;;;;;;5112582;28;20220;-55
2023/09/16 08:05:43;;;;;;;3.03;2.60;;;22.00;62.50;;;;;;5112759;28;20196;-56
2023/09/16 08:08:10;;;;;;;3.47;2.97;;;22.00;62.40;;;;;;5109179;28;20296;-55
2023/09/16 08:10:37;;;;;;;4.32;2.95;;;22.00;62.50;;;;;;5112457;28;20192;-57
2023/09/16 08:13:05;;;;;;;2.88;2.53;;;22.00;62.50;;;;;;5112522;28;20217;-56
2023/09/16 08:15:32;;;;;;;7.47;2.70;;;22.00;62.50;;;;;;5112670;28;20185;-57
2023/09/16 08:17:59;;;;;;;6.05;2.97;;;22.00;62.50;;;;;;5112454;28;20217;-57
2023/09/16 08:20:28;;;;;;;4.28;2.67;;;22.00;62.50;;;;;;5112681;28;20193;-53
2023/09/16 08:22:56;;;;;;;3.35;2.60;;;22.00;62.50;;;;;;5115738;28;20238;-57
2023/09/16 08:25:24;;;;;;;3.88;3.03;;;22.00;62.50;;;;;;5116041;28;20267;-56
2023/09/16 08:27:51;;;;;;;3.60;2.92;;;22.10;62.60;;;;;;5116880;28;20313;-58
2023/09/16 08:30:18;;;;;;;4.40;3.05;;;22.00;62.50;;;;;;5116343;28;20181;-57
2023/09/16 08:32:46;;;;;;;3.67;2.90;;;22.00;62.60;;;;;;5116141;28;20254;-57
2023/09/16 08:35:13;;;;;;;4.60;2.70;;;22.00;62.60;;;;;;5116529;28;20217;-55
2023/09/16 08:37:41;;;;;;;3.03;2.60;;;22.00;62.60;;;;;;5116378;28;20185;-51
2023/09/16 08:40:09;;;;;;;5.07;2.95;;;22.00;62.60;;;;;;5116318;28;20564;-57
2023/09/16 08:42:38;;;;;;;6.10;3.00;;;22.00;62.60;;;;;;5116372;28;20201;-58
2023/09/16 08:45:07;;;;;;;5.10;2.60;;;22.10;62.70;;;;;;5116483;28;20272;-57
2023/09/16 08:47:35;;;;;;;3.88;3.20;;;22.00;62.70;;;;;;5115882;28;20640;-58
2023/09/16 08:50:06;;;;;;;4.20;3.20;;;22.00;62.70;;;;;;5116287;28;20213;-56
2023/09/16 08:52:39;;;;;;;4.07;2.72;;;22.10;62.80;;;;;;5115988;28;20631;-56
2023/09/16 08:55:11;;;;;;;3.45;2.97;;;22.00;62.70;;;;;;5115959;28;20217;-54
2023/09/16 08:57:40;;;;;;;4.00;2.63;;;22.00;62.70;;;;;;5116027;28;20185;-55
2023/09/16 09:00:08;;;;;;;3.47;2.83;;;22.00;62.70;;;;;;5116085;28;20194;-57
2023/09/16 09:02:36;;;;;;;3.63;2.83;;;22.00;62.70;;;;;;5115959;28;20276;-54
2023/09/16 09:05:06;;;;;;;4.57;3.08;;;22.00;62.80;;;;;;5116081;28;20185;-56
2023/09/16 09:07:34;;;;;;;4.50;2.92;;;22.00;62.70;;;;;;5115996;28;20414;-54
2023/09/16 09:10:01;;;;;;;3.65;3.10;;;22.00;62.70;;;;;;5116004;28;20213;-56
2023/09/16 09:12:30;;;;;;;3.83;3.15;;;22.00;62.80;;;;;;5115867;28;20190;-55
2023/09/16 09:14:59;;;;;;;3.20;2.85;;;22.00;62.80;;;;;;5116010;28;20264;-52
2023/09/16 09:17:27;;;;;;;3.38;2.88;;;22.00;62.80;;;;;;5115236;28;20734;-58
2023/09/16 09:19:54;;;;;;;3.72;3.08;;;22.00;62.80;;;;;;5116055;28;20304;-57
2023/09/16 09:22:21;;;;;;;4.30;2.60;;;22.00;62.90;;;;;;5115686;28;20277;-55
2023/09/16 09:24:48;;;;;;;5.10;2.92;;;22.10;63.00;;;;;;5115027;28;20710;-55
2023/09/16 09:27:15;;;;;;;5.32;3.00;;;22.10;63.00;;;;;;5115565;28;20547;-55
2023/09/16 09:29:43;;;;;;;3.22;2.92;;;22.10;63.10;;;;;;5115472;28;20209;-56
2023/09/16 09:32:11;;;;;;;3.30;2.90;;;22.10;63.10;;;;;;5114879;28;20731;-56
2023/09/16 09:34:37;;;;;;;5.00;3.15;;;22.10;63.00;;;;;;5115686;28;20268;-55
2023/09/16 09:37:13;;;;;;;4.22;2.60;;;22.10;63.10;;;;;;5115042;28;20189;-57
2023/09/16 09:39:40;;;;;;;3.45;3.08;;;22.10;63.10;;;;;;5115069;28;20374;-54
2023/09/16 09:42:07;;;;;;;5.03;3.10;;;22.10;63.10;;;;;;5115034;28;20200;-55
2023/09/16 09:44:34;;;;;;;3.85;3.03;;;22.10;63.10;;;;;;5115089;28;20706;-58
2023/09/16 09:47:02;;;;;;;4.70;3.17;;;22.00;63.00;;;;;;5114963;28;20562;-57
2023/09/16 09:49:29;;;;;;;3.05;2.75;;;22.10;63.20;;;;;;5115051;28;20304;-58
2023/09/16 09:51:56;;;;;;;3.38;2.72;;;22.10;63.20;;;;;;5115145;28;20197;-57
2023/09/16 09:54:23;;;;;;;2.95;2.60;;;22.00;63.10;;;;;;5115062;28;20233;-56
2023/09/16 09:56:50;;;;;;;3.15;2.80;;;22.00;63.10;;;;;;5115126;28;20268;-56
2023/09/16 09:59:17;;;;;;;5.80;2.83;;;22.00;63.10;;;;;;5115070;28;20213;-53
2023/09/16 10:01:44;;;;;;;3.60;2.95;;;22.10;63.20;;;;;;5114780;28;20190;-57
2023/09/16 10:04:13;;;;;;;4.32;3.00;;;22.10;63.30;;;;;;5114737;28;20228;-55
2023/09/16 10:06:40;;;;;;;4.95;3.28;;;22.10;63.30;;;;;;5114866;28;20242;-58
2023/09/16 10:09:07;;;;;;;3.20;2.67;;;22.10;63.30;;;;;;5114456;28;20308;-55
2023/09/16 10:11:35;;;;;;;4.38;3.13;;;22.00;63.20;;;;;;5114543;28;20280;-54
2023/09/16 10:14:02;;;;;;;4.00;3.00;;;22.10;63.30;;;;;;5114843;28;20229;-53
2023/09/16 10:16:30;;;;;;;4.15;3.30;;;22.10;63.30;;;;;;5114090;28;20189;-55
2023/09/16 10:18:58;;;;;;;3.72;3.08;;;22.10;63.30;;;;;;5114428;28;20721;-54
2023/09/16 10:21:26;;;;;;;4.72;2.97;;;22.10;63.40;;;;;;5114849;28;20189;-58
2023/09/16 10:23:53;;;;;;;4.35;3.10;;;22.10;63.40;;;;;;5114331;28;20223;-55
2023/09/16 10:26:21;;;;;;;3.75;3.00;;;22.10;63.50;;;;;;5114370;28;20391;-57
2023/09/16 10:28:51;;;;;;;4.28;3.17;;;22.20;63.60;;;;;;5114316;28;20300;-55
2023/09/16 10:31:18;;;;;;;3.58;3.08;;;22.10;63.50;;;;;;5114240;28;20192;-54
2023/09/16 10:33:46;;;;;;;3.20;2.78;;;22.10;63.50;;;;;;5113911;28;20217;-57
2023/09/16 10:36:23;;;;;;;3.60;2.90;;;22.10;63.60;;;;;;5113978;28;20185;-56
2023/09/16 10:38:51;;;;;;;4.28;2.92;;;22.20;63.80;;;;;;5113746;28;20737;-57
2023/09/16 10:41:18;;;;;;;3.28;2.80;;;22.10;63.60;;;;;;5114227;28;20208;-57
2023/09/16 10:43:47;;;;;;;4.10;3.10;;;22.10;63.70;;;;;;5113736;28;20217;-59
2023/09/16 10:46:14;;;;;;;3.97;3.10;;;22.10;63.60;;;;;;5113762;28;20630;-56
2023/09/16 10:48:41;;;;;;;3.00;2.63;;;22.10;63.60;;;;;;5114072;28;20296;-57
2023/09/16 10:51:17;;;;;;;4.50;3.13;;;22.10;63.70;;;;;;5113917;28;20268;-55
2023/09/16 10:53:49;;;;;;;3.50;3.20;;;22.20;63.80;;;;;;5113772;28;20300;-57
2023/09/16 10:56:25;;;;;;;3.38;2.70;;;22.10;63.70;;;;;;5113885;28;20219;-58
2023/09/16 10:58:58;;;;;;;5.65;3.35;;;22.20;63.80;;;;;;5113914;28;20209;-56
2023/09/16 11:01:30;;;;;;;2.90;2.60;;;22.20;63.80;;;;;;5113782;28;20186;-55
2023/09/16 11:04:02;;;;;;;4.15;2.92;;;22.20;63.80;;;;;;5113884;28;20220;-56
2023/09/16 11:06:29;;;;;;;3.20;2.70;;;22.20;63.90;;;;;;5113430;28;20264;-55
2023/09/16 11:08:56;;;;;;;2.80;2.50;;;22.20;63.80;;;;;;5113764;28;20324;-56
2023/09/16 11:11:25;;;;;;;4.50;2.88;;;22.20;63.80;;;;;;5113921;28;20208;-57
2023/09/16 11:13:52;;;;;;;3.88;3.00;;;22.10;63.80;;;;;;5113141;28;20759;-57
2023/09/16 11:16:21;;;;;;;3.42;2.80;;;22.20;63.90;;;;;;5113359;28;20213;-53
2023/09/16 11:18:50;;;;;;;3.60;3.05;;;22.10;63.80;;;;;;5113628;28;20209;-55
2023/09/16 11:21:17;;;;;;;3.45;2.60;;;22.20;63.90;;;;;;5112963;28;20221;-55
2023/09/16 11:23:45;;;;;;;2.88;2.47;;;22.10;63.80;;;;;;5113020;28;20679;-56
2023/09/16 11:26:18;;;;;;;3.95;2.67;;;22.20;63.90;;;;;;5112970;28;20229;-53
2023/09/16 11:28:46;;;;;;;2.83;2.38;;;22.20;63.90;;;;;;5113142;28;20224;-56
2023/09/16 11:31:18;;;;;;;3.08;2.63;;;22.20;63.90;;;;;;5113241;28;20182;-56
2023/09/16 11:33:45;;;;;;;3.30;2.72;;;22.10;63.80;;;;;;5113294;28;20223;-55
2023/09/16 11:36:14;;;;;;;3.60;2.75;;;22.10;63.80;;;;;;5112894;28;20317;-56
2023/09/16 11:39:18;;;;;;;3.40;2.83;;;22.20;63.90;;;;;;5113120;28;20261;-57
2023/09/16 11:41:45;;;;;;;3.08;2.78;;;22.20;64.00;;;;;;5111141;28;20189;-56
2023/09/16 11:44:13;;;;;;;3.08;2.67;;;22.20;64.00;;;;;;5112469;28;20732;-57
2023/09/16 11:46:41;;;;;;;4.05;2.75;;;22.20;63.90;;;;;;5112759;28;20643;-55
2023/09/16 11:49:07;;;;;;;3.30;2.90;;;22.20;63.90;;;;;;5092096;28;20337;-59
2023/09/16 11:51:40;;;;;;;3.42;2.67;;;22.10;63.80;;;;;;5082409;28;20280;-64
2023/09/16 11:54:07;;;;;;;3.80;3.08;;;22.20;63.80;;;;;;5075251;28;20595;-54
2023/09/16 11:56:35;;;;;;;4.57;3.00;;;22.20;63.80;;;;;;5071756;28;20213;-57
2023/09/16 11:59:04;;;;;;;4.60;3.60;;;22.30;63.90;;;;;;5086680;28;20221;-57
2023/09/16 12:01:37;;;;;;;3.65;2.90;;;22.30;63.90;;;;;;5078844;28;20786;-59
2023/09/16 12:04:06;;;;;;;4.88;3.33;;;22.30;63.90;;;;;;5079839;28;20230;-54
2023/09/16 12:06:35;;;;;;;4.35;2.83;;;22.30;63.80;;;;;;5071888;28;20297;-54
2023/09/16 12:09:24;;;;;;;3.35;2.60;;;22.30;64.60;;;;;;5078752;28;20221;-55
2023/09/16 12:12:20;;;;;;;3.30;3.00;;;22.30;63.80;;;;;;5076785;28;20199;-56
2023/09/16 12:14:47;;;;;;;6.70;3.10;;;22.40;63.80;;;;;;5080046;28;20316;-53
2023/09/16 12:17:17;;;;;;;3.53;2.97;;;22.40;63.80;;;;;;5080822;28;20209;-57
2023/09/16 12:19:50;;;;;;;3.70;2.97;;;22.40;63.70;;;;;;5083854;28;20222;-56
2023/09/16 12:22:17;;;;;;;4.65;2.70;;;22.50;63.80;;;;;;5078077;28;20221;-52
2023/09/16 12:24:45;;;;;;;3.67;3.00;;;22.40;63.70;;;;;;5083863;28;20228;-52
2023/09/16 12:27:12;;;;;;;3.58;2.92;;;22.50;63.80;;;;;;5087397;28;20269;-56
2023/09/16 12:29:40;;;;;;;5.22;2.90;;;22.50;63.70;;;;;;5083756;28;20218;-56
2023/09/16 12:32:22;;;;;;;5.78;2.70;;;22.60;63.80;;;;;;5083601;28;20197;-57
2023/09/16 12:35:06;;;;;;;3.78;2.90;;;22.50;63.70;;;;;;5081980;28;20225;-55
2023/09/16 12:37:33;;;;;;;3.67;2.80;;;22.50;63.70;;;;;;5069366;28;20194;-58
2023/09/16 12:40:02;;;;;;;3.80;3.20;;;22.60;63.80;;;;;;5075835;28;20214;-54
2023/09/16 12:42:30;;;;;;;4.43;3.42;;;22.50;63.70;;;;;;5077898;28;20277;-56
2023/09/16 12:44:59;;;;;;;3.75;3.13;;;22.60;63.80;;;;;;5088667;28;20221;-56
2023/09/16 12:50:56;;;;;;;7.03;3.88;;;22.60;63.80;;;;;;5004689;28;20228;-56
2023/09/16 12:53:35;;;;;;;;;;;;;;;;;;;;;
2023/09/16 12:58:56;;;;;;;4.75;3.60;;;22.70;63.80;;;;;;4939184;28;20335;-53
2023/09/16 13:01:24;;;;;;;7.82;3.33;;;22.70;63.90;;;;;;4963777;28;20200;-52
2023/09/16 13:03:53;;;;;;;2.90;2.63;;;22.70;63.80;;;;;;5018799;28;20839;-53
2023/09/16 13:06:29;;;;;;;5.00;3.38;;;22.70;63.80;;;;;;5016620;28;20717;-55
2023/09/16 13:08:57;;;;;;;3.80;3.17;;;22.70;63.80;;;;;;5016541;28;20224;-52
2023/09/16 13:11:25;;;;;;;4.75;3.65;;;22.80;63.90;;;;;;5020119;28;20347;-55